createdAt,value
2022-10-19T00:00:23.573Z,11.86
2022-10-19T00:01:25.287Z,11.86
2022-10-19T00:02:27.082Z,11.86
2022-10-19T00:03:28.721Z,11.86
2022-10-19T00:04:30.472Z,11.87
2022-10-19T00:05:32.181Z,11.88
2022-10-19T00:06:33.939Z,11.89
2022-10-19T00:07:36.047Z,11.91
2022-10-19T00:08:37.363Z,11.92
2022-10-19T00:09:39.074Z,11.93
2022-10-19T00:10:40.828Z,11.93
2022-10-19T00:11:42.521Z,11.95
2022-10-19T00:12:44.341Z,11.95
2022-10-19T00:13:46.001Z,11.95
2022-10-19T00:14:47.729Z,11.96
2022-10-19T00:15:49.454Z,11.96
2022-10-19T00:16:51.157Z,11.97
2022-10-19T00:17:52.898Z,11.96
2022-10-19T00:18:54.607Z,11.95
2022-10-19T00:19:56.342Z,11.94
2022-10-19T00:20:58.091Z,11.93
2022-10-19T00:21:59.804Z,11.91
2022-10-19T00:23:01.517Z,11.89
2022-10-19T00:24:03.243Z,11.88
2022-10-19T00:25:04.977Z,11.85
2022-10-19T00:26:06.699Z,11.84
2022-10-19T00:27:08.409Z,11.82
2022-10-19T00:28:10.136Z,11.8
2022-10-19T00:29:11.908Z,11.78
2022-10-19T00:30:13.638Z,11.76
2022-10-19T00:31:15.328Z,11.74
2022-10-19T00:32:17.072Z,11.72
2022-10-19T00:33:18.777Z,11.7
2022-10-19T00:34:20.511Z,11.68
2022-10-19T00:35:22.224Z,11.66
2022-10-19T00:36:23.982Z,11.64
2022-10-19T00:37:25.690Z,11.62
2022-10-19T00:38:27.392Z,11.6
2022-10-19T00:39:29.128Z,11.59
2022-10-19T00:40:30.877Z,11.55
2022-10-19T00:41:32.600Z,11.54
2022-10-19T00:42:34.700Z,11.51
2022-10-19T00:43:36.022Z,11.48
2022-10-19T00:44:37.768Z,11.45
2022-10-19T00:45:39.491Z,11.43
2022-10-19T00:46:41.213Z,11.4
2022-10-19T00:47:42.929Z,11.38
2022-10-19T00:48:44.691Z,11.36
2022-10-19T00:49:46.385Z,11.34
2022-10-19T00:50:48.123Z,11.32
2022-10-19T00:51:49.845Z,11.3
2022-10-19T00:52:51.561Z,11.29
2022-10-19T00:53:53.282Z,11.26
2022-10-19T00:54:55.024Z,11.24
2022-10-19T00:55:56.738Z,11.23
2022-10-19T00:56:58.477Z,11.21
2022-10-19T00:58:00.186Z,11.19
2022-10-19T00:59:01.898Z,11.18
2022-10-19T01:00:03.674Z,11.16
2022-10-19T01:01:05.466Z,11.16
2022-10-19T01:02:07.103Z,11.13
2022-10-19T01:03:08.846Z,11.13
2022-10-19T01:04:10.551Z,11.11
2022-10-19T01:05:12.275Z,11.11
2022-10-19T01:06:13.995Z,11.1
2022-10-19T01:07:15.748Z,11.1
2022-10-19T01:08:17.432Z,11.09
2022-10-19T01:09:19.188Z,11.08
2022-10-19T01:10:20.913Z,11.07
2022-10-19T01:11:22.669Z,11.07
2022-10-19T01:12:24.367Z,11.08
2022-10-19T01:13:26.105Z,11.09
2022-10-19T01:14:27.810Z,11.09
2022-10-19T01:15:29.553Z,11.1
2022-10-19T01:16:31.264Z,11.11
2022-10-19T01:17:33.315Z,11.13
2022-10-19T01:18:34.712Z,11.14
2022-10-19T01:19:36.415Z,11.14
2022-10-19T01:20:38.168Z,11.17
2022-10-19T01:21:39.890Z,11.19
2022-10-19T01:22:41.609Z,11.2
2022-10-19T01:23:43.346Z,11.21
2022-10-19T01:24:45.134Z,11.22
2022-10-19T01:25:46.797Z,11.24
2022-10-19T01:26:48.501Z,11.25
2022-10-19T01:27:50.246Z,11.28
2022-10-19T01:28:52.047Z,11.31
2022-10-19T01:29:53.700Z,11.33
2022-10-19T01:30:55.439Z,11.35
2022-10-19T01:31:57.141Z,11.37
2022-10-19T01:32:58.884Z,11.39
2022-10-19T01:34:00.609Z,11.4
2022-10-19T01:35:02.321Z,11.42
2022-10-19T01:36:04.044Z,11.44
2022-10-19T01:37:05.767Z,11.45
2022-10-19T01:38:07.511Z,11.46
2022-10-19T01:39:09.227Z,11.47
2022-10-19T01:40:10.936Z,11.48
2022-10-19T01:41:12.678Z,11.49
2022-10-19T01:42:14.432Z,11.49
2022-10-19T01:43:16.138Z,11.5
2022-10-19T01:44:17.860Z,11.51
2022-10-19T01:45:19.589Z,11.5
2022-10-19T01:46:21.313Z,11.51
2022-10-19T01:47:23.028Z,11.51
2022-10-19T01:48:24.772Z,11.51
2022-10-19T01:49:26.460Z,11.51
2022-10-19T01:50:28.218Z,11.5
2022-10-19T01:51:29.931Z,11.5
2022-10-19T01:52:32.059Z,11.49
2022-10-19T01:53:33.391Z,11.49
2022-10-19T01:54:35.152Z,11.48
2022-10-19T01:55:36.831Z,11.46
2022-10-19T01:56:38.597Z,11.46
2022-10-19T01:57:40.282Z,11.44
2022-10-19T01:58:42.021Z,11.41
2022-10-19T01:59:43.741Z,11.4
2022-10-19T02:00:45.637Z,11.39
2022-10-19T02:01:47.182Z,11.38
2022-10-19T02:02:48.925Z,11.37
2022-10-19T02:03:50.658Z,11.36
2022-10-19T02:04:52.364Z,11.35
2022-10-19T02:05:54.085Z,11.34
2022-10-19T02:06:55.799Z,11.33
2022-10-19T02:07:57.535Z,11.32
2022-10-19T02:08:59.267Z,11.33
2022-10-19T02:10:01.022Z,11.32
2022-10-19T02:11:02.707Z,11.31
2022-10-19T02:12:04.423Z,11.3
2022-10-19T02:13:06.144Z,11.3
2022-10-19T02:14:07.901Z,11.29
2022-10-19T02:15:09.609Z,11.29
2022-10-19T02:16:11.350Z,11.28
2022-10-19T02:17:13.053Z,11.27
2022-10-19T02:18:14.806Z,11.26
2022-10-19T02:19:16.623Z,11.25
2022-10-19T02:20:18.246Z,11.24
2022-10-19T02:21:19.974Z,11.23
2022-10-19T02:22:21.684Z,11.22
2022-10-19T02:23:23.407Z,11.22
2022-10-19T02:24:25.151Z,11.22
2022-10-19T02:25:26.886Z,11.22
2022-10-19T02:26:28.600Z,11.21
2022-10-19T02:27:30.326Z,11.21
2022-10-19T02:28:32.059Z,11.21
2022-10-19T02:29:33.782Z,11.21
2022-10-19T02:30:35.511Z,11.21
2022-10-19T02:31:37.243Z,11.21
2022-10-19T02:32:38.952Z,11.2
2022-10-19T02:33:40.668Z,11.21
2022-10-19T02:34:42.414Z,11.21
2022-10-19T02:35:44.117Z,11.21
2022-10-19T02:36:45.861Z,11.22
2022-10-19T02:37:47.582Z,11.22
2022-10-19T02:38:49.312Z,11.22
2022-10-19T02:39:51.032Z,11.22
2022-10-19T02:40:52.760Z,11.21
2022-10-19T02:41:54.525Z,11.2
2022-10-19T02:42:56.217Z,11.21
2022-10-19T02:43:57.944Z,11.21
2022-10-19T02:44:59.677Z,11.21
2022-10-19T02:46:01.395Z,11.21
2022-10-19T02:47:03.135Z,11.21
2022-10-19T02:48:04.856Z,11.2
2022-10-19T02:49:06.586Z,11.2
2022-10-19T02:50:08.294Z,11.2
2022-10-19T02:51:10.028Z,11.2
2022-10-19T02:52:11.765Z,11.21
2022-10-19T02:53:13.462Z,11.2
2022-10-19T02:54:15.183Z,11.2
2022-10-19T02:55:16.933Z,11.2
2022-10-19T02:56:18.632Z,11.2
2022-10-19T02:57:20.386Z,11.21
2022-10-19T02:58:22.097Z,11.21
2022-10-19T02:59:24.122Z,11.22
2022-10-19T03:00:25.556Z,11.22
2022-10-19T03:01:27.271Z,11.22
2022-10-19T03:02:28.990Z,11.23
2022-10-19T03:03:30.717Z,11.24
2022-10-19T03:04:32.441Z,11.26
2022-10-19T03:05:34.186Z,11.27
2022-10-19T03:06:35.894Z,11.28
2022-10-19T03:07:37.840Z,11.31
2022-10-19T03:08:39.342Z,11.33
2022-10-19T03:09:41.075Z,11.34
2022-10-19T03:10:42.794Z,11.37
2022-10-19T03:11:44.522Z,11.38
2022-10-19T03:12:46.254Z,11.41
2022-10-19T03:14:49.698Z,11.46
2022-10-19T03:15:51.443Z,11.47
2022-10-19T03:16:53.148Z,11.49
2022-10-19T03:17:54.892Z,11.51
2022-10-19T03:18:56.611Z,11.53
2022-10-19T03:19:58.325Z,11.55
2022-10-19T03:21:00.432Z,11.56
2022-10-19T03:22:01.767Z,11.57
2022-10-19T03:23:03.504Z,11.58
2022-10-19T03:24:05.223Z,11.59
2022-10-19T03:25:06.973Z,11.59
2022-10-19T03:26:11.426Z,11.6
2022-10-19T03:27:10.418Z,11.6
2022-10-19T03:28:12.130Z,11.61
2022-10-19T03:29:13.871Z,11.6
2022-10-19T03:30:15.583Z,11.61
2022-10-19T03:31:17.308Z,11.6
2022-10-19T03:32:19.035Z,11.59
2022-10-19T03:33:20.845Z,11.59
2022-10-19T03:34:22.476Z,11.6
2022-10-19T03:35:24.201Z,11.59
2022-10-19T03:36:25.945Z,11.59
2022-10-19T03:37:27.685Z,11.59
2022-10-19T03:38:29.389Z,11.58
2022-10-19T03:39:31.122Z,11.58
2022-10-19T03:40:32.851Z,11.58
2022-10-19T03:41:34.635Z,11.59
2022-10-19T03:42:36.378Z,11.58
2022-10-19T03:43:38.013Z,11.58
2022-10-19T03:44:39.744Z,11.57
2022-10-19T03:45:41.464Z,11.58
2022-10-19T03:46:43.195Z,11.58
2022-10-19T03:47:44.935Z,11.58
2022-10-19T03:48:46.646Z,11.58
2022-10-19T03:49:48.361Z,11.58
2022-10-19T03:50:50.101Z,11.57
2022-10-19T03:51:51.838Z,11.57
2022-10-19T03:52:53.654Z,11.58
2022-10-19T03:53:55.275Z,11.56
2022-10-19T03:54:56.999Z,11.56
2022-10-19T03:55:58.719Z,11.55
2022-10-19T03:57:00.486Z,11.54
2022-10-19T03:58:02.181Z,11.53
2022-10-19T03:59:03.895Z,11.53
2022-10-19T04:00:05.627Z,11.51
2022-10-19T04:01:07.437Z,11.5
2022-10-19T04:02:09.094Z,11.49
2022-10-19T04:03:10.799Z,11.48
2022-10-19T04:04:12.521Z,11.47
2022-10-19T04:05:14.258Z,11.45
2022-10-19T04:06:18.343Z,11.43
2022-10-19T04:07:17.874Z,11.41
2022-10-19T04:08:19.438Z,11.4
2022-10-19T04:09:21.165Z,11.38
2022-10-19T04:10:22.878Z,11.37
2022-10-19T04:11:24.626Z,11.34
2022-10-19T04:12:26.348Z,11.33
2022-10-19T04:13:28.066Z,11.32
2022-10-19T04:14:32.854Z,11.3
2022-10-19T04:15:31.516Z,11.29
2022-10-19T04:16:33.241Z,11.27
2022-10-19T04:17:35.339Z,11.25
2022-10-19T04:18:36.689Z,11.24
2022-10-19T04:19:38.421Z,11.21
2022-10-19T04:20:40.152Z,11.2
2022-10-19T04:21:41.870Z,11.19
2022-10-19T04:22:43.616Z,11.18
2022-10-19T04:23:45.309Z,11.16
2022-10-19T04:24:47.050Z,11.14
2022-10-19T04:25:48.770Z,11.12
2022-10-19T04:26:50.498Z,11.1
2022-10-19T04:27:52.241Z,11.09
2022-10-19T04:28:54.035Z,11.07
2022-10-19T04:29:55.667Z,11.06
2022-10-19T04:30:57.397Z,11.05
2022-10-19T04:31:59.128Z,11.03
2022-10-19T04:33:00.841Z,11.01
2022-10-19T04:34:02.571Z,10.98
2022-10-19T04:35:04.296Z,10.97
2022-10-19T04:36:06.030Z,10.93
2022-10-19T04:37:07.784Z,10.9
2022-10-19T04:38:09.888Z,10.88
2022-10-19T04:39:11.193Z,10.85
2022-10-19T04:40:14.968Z,10.82
2022-10-19T04:41:14.644Z,10.8
2022-10-19T04:42:16.393Z,10.78
2022-10-19T04:43:18.206Z,10.77
2022-10-19T04:44:19.872Z,10.75
2022-10-19T04:45:21.555Z,10.74
2022-10-19T04:46:23.278Z,10.74
2022-10-19T04:47:25.030Z,10.74
2022-10-19T04:48:26.729Z,10.72
2022-10-19T04:49:28.461Z,10.71
2022-10-19T04:50:30.175Z,10.71
2022-10-19T04:51:31.914Z,10.7
2022-10-19T04:52:33.658Z,10.69
2022-10-19T04:53:35.362Z,10.68
2022-10-19T04:54:37.087Z,10.67
2022-10-19T04:55:38.812Z,10.67
2022-10-19T04:56:40.535Z,10.66
2022-10-19T04:57:42.279Z,10.66
2022-10-19T04:58:43.992Z,10.66
2022-10-19T04:59:45.708Z,10.65
2022-10-19T05:00:47.477Z,10.64
2022-10-19T05:01:49.164Z,10.65
2022-10-19T05:02:50.890Z,10.65
2022-10-19T05:03:52.731Z,10.64
2022-10-19T05:04:54.338Z,10.65
2022-10-19T05:05:56.064Z,10.65
2022-10-19T05:06:57.792Z,10.66
2022-10-19T05:07:59.519Z,10.66
2022-10-19T05:09:01.255Z,10.65
2022-10-19T05:10:02.975Z,10.66
2022-10-19T05:11:04.705Z,10.65
2022-10-19T05:12:06.417Z,10.65
2022-10-19T05:13:08.137Z,10.65
2022-10-19T05:14:09.869Z,10.64
2022-10-19T05:15:11.641Z,10.64
2022-10-19T05:16:13.335Z,10.64
2022-10-19T05:17:15.071Z,10.64
2022-10-19T05:18:16.780Z,10.64
2022-10-19T05:19:18.497Z,10.64
2022-10-19T05:20:20.223Z,10.63
2022-10-19T05:21:21.954Z,10.62
2022-10-19T05:22:23.685Z,10.6
2022-10-19T05:23:25.461Z,10.6
2022-10-19T05:24:27.153Z,10.58
2022-10-19T05:25:28.858Z,10.57
2022-10-19T05:26:30.577Z,10.56
2022-10-19T05:27:32.721Z,10.55
2022-10-19T05:28:34.095Z,10.54
2022-10-19T05:29:35.761Z,10.54
2022-10-19T05:30:37.480Z,10.54
2022-10-19T05:31:39.207Z,10.54
2022-10-19T05:32:40.929Z,10.53
2022-10-19T05:33:42.665Z,10.53
2022-10-19T05:34:44.392Z,10.53
2022-10-19T05:35:46.115Z,10.53
2022-10-19T05:36:47.838Z,10.53
2022-10-19T05:37:49.572Z,10.53
2022-10-19T05:38:51.294Z,10.54
2022-10-19T05:39:53.150Z,10.53
2022-10-19T05:40:54.745Z,10.54
2022-10-19T05:41:56.468Z,10.54
2022-10-19T05:42:58.192Z,10.54
2022-10-19T05:43:59.947Z,10.55
2022-10-19T05:45:01.651Z,10.54
2022-10-19T05:46:03.411Z,10.54
2022-10-19T05:47:05.137Z,10.55
2022-10-19T05:48:06.893Z,10.55
2022-10-19T05:49:08.625Z,10.56
2022-10-19T05:50:10.324Z,10.55
2022-10-19T05:51:16.385Z,10.55
2022-10-19T05:52:19.111Z,10.55
2022-10-19T05:53:20.818Z,10.55
2022-10-19T05:54:25.008Z,10.55
2022-10-19T05:55:24.284Z,10.55
2022-10-19T05:56:26.015Z,10.55
2022-10-19T05:57:27.763Z,10.55
2022-10-19T05:58:29.480Z,10.55
2022-10-19T05:59:31.231Z,10.54
2022-10-19T06:00:32.947Z,10.54
2022-10-19T06:01:34.758Z,10.54
2022-10-19T06:02:36.449Z,10.52
2022-10-19T06:03:38.138Z,10.52
2022-10-19T06:04:39.928Z,10.52
2022-10-19T06:05:41.807Z,10.52
2022-10-19T06:06:43.379Z,10.51
2022-10-19T06:07:45.088Z,10.51
2022-10-19T06:08:46.848Z,10.51
2022-10-19T06:09:48.616Z,10.52
2022-10-19T06:10:50.282Z,10.51
2022-10-19T06:11:52.027Z,10.51
2022-10-19T06:12:53.774Z,10.51
2022-10-19T06:13:55.530Z,10.52
2022-10-19T06:14:57.234Z,10.51
2022-10-19T06:15:59.185Z,10.51
2022-10-19T06:17:00.678Z,10.5
2022-10-19T06:18:02.439Z,10.5
2022-10-19T06:19:04.184Z,10.49
2022-10-19T06:20:05.887Z,10.49
2022-10-19T06:21:07.637Z,10.5
2022-10-19T06:22:09.355Z,10.5
2022-10-19T06:23:11.099Z,10.5
2022-10-19T06:24:12.837Z,10.5
2022-10-19T06:25:17.991Z,10.51
2022-10-19T06:26:16.318Z,10.5
2022-10-19T06:27:18.149Z,10.52
2022-10-19T06:28:19.877Z,10.51
2022-10-19T06:29:21.539Z,10.51
2022-10-19T06:30:23.284Z,10.51
2022-10-19T06:31:24.980Z,10.51
2022-10-19T06:32:27.087Z,10.52
2022-10-19T06:33:28.461Z,10.52
2022-10-19T06:34:30.259Z,10.52
2022-10-19T06:35:31.920Z,10.51
2022-10-19T06:36:33.647Z,10.51
2022-10-19T06:37:35.628Z,10.52
2022-10-19T06:38:37.120Z,10.51
2022-10-19T06:39:38.933Z,10.51
2022-10-19T06:40:40.589Z,10.51
2022-10-19T06:41:42.305Z,10.5
2022-10-19T06:42:44.043Z,10.51
2022-10-19T06:43:45.779Z,10.51
2022-10-19T06:44:47.524Z,10.52
2022-10-19T06:45:49.238Z,10.51
2022-10-19T06:46:50.998Z,10.51
2022-10-19T06:47:52.724Z,10.52
2022-10-19T06:48:54.482Z,10.53
2022-10-19T06:49:56.231Z,10.54
2022-10-19T06:50:57.959Z,10.53
2022-10-19T06:51:59.668Z,10.53
2022-10-19T06:53:01.407Z,10.55
2022-10-19T06:54:03.157Z,10.54
2022-10-19T06:55:04.885Z,10.56
2022-10-19T06:56:06.597Z,10.57
2022-10-19T06:57:08.342Z,10.58
2022-10-19T06:58:10.071Z,10.59
2022-10-19T06:59:11.858Z,10.61
2022-10-19T07:00:13.542Z,10.62
2022-10-19T07:01:15.475Z,10.62
2022-10-19T07:02:17.022Z,10.62
2022-10-19T07:03:18.757Z,10.63
2022-10-19T07:04:20.482Z,10.64
2022-10-19T07:05:22.213Z,10.63
2022-10-19T07:06:23.964Z,10.63
2022-10-19T07:07:25.760Z,10.64
2022-10-19T07:08:27.458Z,10.63
2022-10-19T07:09:29.163Z,10.63
2022-10-19T07:10:30.896Z,10.62
2022-10-19T07:11:32.633Z,10.63
2022-10-19T07:12:34.344Z,10.62
2022-10-19T07:13:36.075Z,10.63
2022-10-19T07:14:37.831Z,10.64
2022-10-19T07:15:39.558Z,10.65
2022-10-19T07:16:41.274Z,10.59
2022-10-19T07:17:43.042Z,10.59
2022-10-19T07:18:44.758Z,10.61
2022-10-19T07:19:46.512Z,10.62
2022-10-19T07:20:48.226Z,10.64
2022-10-19T07:21:49.968Z,10.63
2022-10-19T07:22:51.695Z,10.62
2022-10-19T07:23:53.432Z,10.64
2022-10-19T07:24:55.179Z,10.65
2022-10-19T07:25:56.902Z,10.65
2022-10-19T07:26:58.625Z,10.68
2022-10-19T07:28:00.368Z,10.73
2022-10-19T07:29:02.103Z,10.8
2022-10-19T07:30:03.829Z,10.86
2022-10-19T07:31:05.578Z,10.93
2022-10-19T07:32:07.286Z,10.98
2022-10-19T07:33:19.425Z,11.07
2022-10-19T07:34:24.174Z,11.13
2022-10-19T07:35:48.149Z,11.21
2022-10-19T07:36:49.821Z,11.27
2022-10-19T07:37:51.606Z,11.31
2022-10-19T07:38:53.275Z,11.37
2022-10-19T07:39:55.104Z,11.44
2022-10-19T07:40:56.755Z,11.48
2022-10-19T07:41:58.457Z,11.49
2022-10-19T07:43:00.175Z,11.53
2022-10-19T07:44:01.918Z,11.58
2022-10-19T07:45:03.631Z,11.62
2022-10-19T07:46:05.377Z,11.65
2022-10-19T07:47:07.091Z,11.67
2022-10-19T07:48:08.815Z,11.69
2022-10-19T07:49:12.157Z,11.73
2022-10-19T07:50:12.247Z,11.76
2022-10-19T07:51:14.039Z,11.76
2022-10-19T07:52:15.718Z,11.77
2022-10-19T07:53:17.461Z,11.81
2022-10-19T07:54:19.162Z,11.88
2022-10-19T07:55:20.905Z,11.92
2022-10-19T07:56:22.625Z,11.97
2022-10-19T07:57:24.349Z,12.02
2022-10-19T07:58:26.058Z,12.05
2022-10-19T07:59:27.818Z,12.07
2022-10-19T08:00:29.600Z,12.11
2022-10-19T08:01:31.277Z,12.17
2022-10-19T08:02:39.689Z,12.23
2022-10-19T08:04:59.441Z,12.34
2022-10-19T08:05:38.301Z,12.41
2022-10-19T08:06:39.883Z,12.5
2022-10-19T08:07:41.670Z,12.58
2022-10-19T08:08:43.350Z,12.66
2022-10-19T08:09:53.395Z,12.75
2022-10-19T08:10:46.770Z,12.84
2022-10-19T08:11:48.503Z,12.93
2022-10-19T08:12:50.231Z,13
2022-10-19T08:13:51.963Z,13.06
2022-10-19T08:14:53.666Z,13.13
2022-10-19T08:15:55.406Z,13.2
2022-10-19T08:16:57.130Z,13.27
2022-10-19T08:17:58.853Z,13.34
2022-10-19T08:19:00.594Z,13.38
2022-10-19T08:20:02.319Z,13.43
2022-10-19T08:21:04.020Z,13.52
2022-10-19T08:22:05.799Z,13.61
2022-10-19T08:23:07.522Z,13.71
2022-10-19T08:24:09.214Z,13.85
2022-10-19T08:25:10.947Z,13.95
2022-10-19T08:26:12.666Z,14.04
2022-10-19T08:27:14.414Z,14.13
2022-10-19T08:28:16.134Z,14.24
2022-10-19T08:29:17.869Z,14.29
2022-10-19T08:30:19.594Z,14.36
2022-10-19T08:31:21.318Z,14.48
2022-10-19T08:32:23.052Z,14.57
2022-10-19T08:33:24.005Z,14.68
2022-10-19T08:34:26.500Z,14.74
2022-10-19T08:35:28.197Z,14.91
2022-10-19T08:36:29.984Z,14.99
2022-10-19T08:37:44.152Z,15.1
2022-10-19T08:38:33.392Z,15.2
2022-10-19T08:39:35.101Z,15.32
2022-10-19T08:40:38.337Z,15.42
2022-10-19T08:41:38.663Z,15.46
2022-10-19T08:42:40.319Z,15.6
2022-10-19T08:43:46.455Z,15.72
2022-10-19T08:44:48.915Z,15.77
2022-10-19T08:45:50.620Z,15.86
2022-10-19T08:46:52.335Z,16.02
2022-10-19T08:47:54.087Z,16.17
2022-10-19T08:48:55.802Z,16.27
2022-10-19T08:49:57.524Z,16.23
2022-10-19T08:50:59.280Z,16.12
2022-10-19T08:52:00.972Z,16.07
2022-10-19T08:53:02.753Z,16.09
2022-10-19T08:54:04.429Z,16.18
2022-10-19T08:55:06.164Z,16.24
2022-10-19T08:56:07.873Z,16.14
2022-10-19T08:57:09.609Z,16.07
2022-10-19T08:58:11.334Z,15.93
2022-10-19T08:59:13.071Z,15.87
2022-10-19T09:00:15.254Z,15.77
2022-10-19T09:01:16.530Z,15.65
2022-10-19T09:02:18.238Z,15.54
2022-10-19T09:03:27.167Z,15.44
2022-10-19T09:04:21.683Z,15.31
2022-10-19T09:05:23.404Z,15.27
2022-10-19T09:06:25.183Z,15.18
2022-10-19T09:07:26.884Z,15.19
2022-10-19T09:08:28.665Z,15.13
2022-10-19T09:09:30.308Z,15.07
2022-10-19T09:10:32.032Z,14.98
2022-10-19T09:11:33.800Z,14.97
2022-10-19T09:12:35.707Z,14.99
2022-10-19T09:13:47.000Z,14.9
2022-10-19T09:14:38.936Z,14.78
2022-10-19T09:15:40.661Z,14.65
2022-10-19T09:16:42.389Z,14.44
2022-10-19T09:17:44.120Z,14.38
2022-10-19T09:18:45.872Z,14.26
2022-10-19T09:19:47.572Z,14.18
2022-10-19T09:20:49.293Z,14.13
2022-10-19T09:21:52.348Z,14.01
2022-10-19T09:22:52.742Z,13.93
2022-10-19T09:23:53.641Z,13.8
2022-10-19T09:24:54.223Z,13.65
2022-10-19T09:26:00.457Z,13.6
2022-10-19T09:27:02.721Z,13.57
2022-10-19T09:28:07.453Z,13.47
2022-10-19T09:29:13.315Z,13.45
2022-10-19T09:30:16.054Z,13.44
2022-10-19T09:31:17.813Z,13.41
2022-10-19T09:32:19.489Z,13.44
2022-10-19T09:33:21.320Z,13.47
2022-10-19T09:34:21.218Z,13.51
2022-10-19T09:35:24.671Z,13.56
2022-10-19T09:36:33.264Z,13.65
2022-10-19T09:38:29.851Z,13.79
2022-10-19T09:39:32.895Z,13.86
2022-10-19T09:40:33.297Z,13.97
2022-10-19T09:41:35.036Z,14.06
2022-10-19T09:42:49.656Z,14.14
2022-10-19T09:43:51.337Z,14.21
2022-10-19T09:49:48.091Z,14.32
2022-10-19T09:50:49.726Z,14.36
2022-10-19T09:51:51.450Z,14.41
2022-10-19T09:52:53.189Z,14.45
2022-10-19T09:53:54.902Z,14.51
2022-10-19T09:54:56.624Z,14.57
2022-10-19T09:55:58.365Z,14.6
2022-10-19T09:57:00.141Z,14.56
2022-10-19T09:58:01.796Z,14.58
2022-10-19T09:59:03.523Z,14.62
2022-10-19T10:00:05.327Z,14.63
2022-10-19T10:01:06.977Z,14.66
2022-10-19T10:02:08.714Z,14.66
2022-10-19T10:03:10.454Z,14.67
2022-10-19T10:04:12.145Z,14.63
2022-10-19T10:05:13.887Z,14.64
2022-10-19T10:06:15.606Z,14.65
2022-10-19T10:07:17.341Z,14.67
2022-10-19T10:08:19.057Z,14.68
2022-10-19T10:09:20.765Z,14.71
2022-10-19T10:10:25.667Z,14.75
2022-10-19T10:11:24.232Z,14.81
2022-10-19T10:12:25.956Z,14.83
2022-10-19T10:13:27.698Z,14.87
2022-10-19T10:14:29.413Z,14.93
2022-10-19T10:15:31.127Z,15
2022-10-19T10:16:32.860Z,15.1
2022-10-19T10:17:34.585Z,15.22
2022-10-19T10:18:36.309Z,15.36
2022-10-19T10:20:39.753Z,15.6
2022-10-19T10:20:42.138Z,15.49
2022-10-19T10:21:41.487Z,15.7
2022-10-19T10:22:43.216Z,15.8
2022-10-19T10:23:44.940Z,15.89
2022-10-19T10:24:46.653Z,15.97
2022-10-19T10:25:48.395Z,16.05
2022-10-19T10:26:50.125Z,16.12
2022-10-19T10:27:51.864Z,16.22
2022-10-19T10:28:55.609Z,16.42
2022-10-19T10:30:57.048Z,16.83
2022-10-19T10:32:03.909Z,17.11
2022-10-19T10:33:13.506Z,17.11
2022-10-19T10:34:16.555Z,17.17
2022-10-19T10:35:09.084Z,17.37
2022-10-19T10:36:10.831Z,17.58
2022-10-19T10:37:12.535Z,17.74
2022-10-19T10:38:14.274Z,17.86
2022-10-19T10:39:16.010Z,17.98
2022-10-19T10:40:21.199Z,18.18
2022-10-19T10:41:19.428Z,18.3
2022-10-19T10:42:21.167Z,18.41
2022-10-19T10:43:22.902Z,18.46
2022-10-19T10:44:24.616Z,18.57
2022-10-19T10:45:26.338Z,18.76
2022-10-19T10:46:28.074Z,18.77
2022-10-19T10:47:29.812Z,18.8
2022-10-19T10:48:31.537Z,18.62
2022-10-19T10:49:33.238Z,18.49
2022-10-19T10:50:34.963Z,18.46
2022-10-19T10:51:36.713Z,18.4
2022-10-19T10:52:38.656Z,18.18
2022-10-19T10:53:40.150Z,17.91
2022-10-19T10:54:41.886Z,17.56
2022-10-19T10:55:42.678Z,17.41
2022-10-19T10:56:45.336Z,17.31
2022-10-19T10:57:47.077Z,17.15
2022-10-19T10:58:48.775Z,17.04
2022-10-19T10:59:50.490Z,16.96
2022-10-19T11:00:52.238Z,16.93
2022-10-19T11:01:54.031Z,16.89
2022-10-19T11:02:55.693Z,16.88
2022-10-19T11:04:01.602Z,16.78
2022-10-19T11:05:04.278Z,16.67
2022-10-19T11:06:05.995Z,16.58
2022-10-19T11:07:07.724Z,16.49
2022-10-19T11:08:09.451Z,16.38
2022-10-19T11:09:11.196Z,16.28
2022-10-19T11:10:12.886Z,16.19
2022-10-19T11:11:14.615Z,16.11
2022-10-19T11:12:16.341Z,16.05
2022-10-19T11:13:18.089Z,15.96
2022-10-19T11:14:19.790Z,15.93
2022-10-19T11:15:21.602Z,15.93
2022-10-19T11:16:23.266Z,15.88
2022-10-19T11:17:24.970Z,15.8
2022-10-19T11:18:26.715Z,15.84
2022-10-19T11:19:28.426Z,15.76
2022-10-19T11:20:30.148Z,15.71
2022-10-19T11:21:31.873Z,15.67
2022-10-19T11:22:34.054Z,15.61
2022-10-19T11:23:35.339Z,15.57
2022-10-19T11:24:37.058Z,15.52
2022-10-19T11:25:38.802Z,15.47
2022-10-19T11:26:40.541Z,15.45
2022-10-19T11:27:42.252Z,15.41
2022-10-19T11:28:43.947Z,15.39
2022-10-19T11:29:45.684Z,15.35
2022-10-19T11:30:50.471Z,15.31
2022-10-19T11:31:49.132Z,15.29
2022-10-19T11:32:50.876Z,15.24
2022-10-19T11:33:52.585Z,15.21
2022-10-19T11:34:54.399Z,15.16
2022-10-19T11:35:56.045Z,15.08
2022-10-19T11:36:57.754Z,15.06
2022-10-19T11:38:18.252Z,15.02
2022-10-19T11:39:01.213Z,14.97
2022-10-19T11:40:02.947Z,14.91
2022-10-19T11:41:18.233Z,14.86
2022-10-19T11:42:06.394Z,14.79
2022-10-19T11:43:08.134Z,14.74
2022-10-19T11:44:09.837Z,14.62
2022-10-19T11:45:11.564Z,14.56
2022-10-19T11:46:13.316Z,14.49
2022-10-19T11:47:15.025Z,14.43
2022-10-19T11:48:16.757Z,14.36
2022-10-19T11:49:18.496Z,14.32
2022-10-19T11:50:42.227Z,14.24
2022-10-19T11:51:42.527Z,14.17
2022-10-19T11:52:44.245Z,14.12
2022-10-19T11:53:46.002Z,14.07
2022-10-19T11:54:47.715Z,14.04
2022-10-19T11:55:52.454Z,14
2022-10-19T11:57:03.968Z,13.86
2022-10-19T11:57:57.886Z,13.8
2022-10-19T11:58:59.681Z,13.76
2022-10-19T12:00:13.554Z,13.68
2022-10-19T12:01:03.090Z,13.64
2022-10-19T12:02:04.853Z,13.64
2022-10-19T12:03:06.515Z,13.62
2022-10-19T12:04:08.248Z,13.52
2022-10-19T12:05:35.545Z,13.53
2022-10-19T12:06:37.286Z,13.52
2022-10-19T12:07:39.023Z,13.5
2022-10-19T12:08:40.811Z,13.49
2022-10-19T12:09:42.496Z,13.49
2022-10-19T12:10:44.299Z,13.49
2022-10-19T12:11:45.908Z,13.46
2022-10-19T12:12:47.635Z,13.44
2022-10-19T12:13:49.390Z,13.4
2022-10-19T12:14:51.104Z,13.37
2022-10-19T12:15:53.799Z,13.36
2022-10-19T12:16:54.402Z,13.33
2022-10-19T12:17:56.186Z,13.35
2022-10-19T12:18:57.889Z,13.35
2022-10-19T12:19:59.628Z,13.34
2022-10-19T12:21:01.354Z,13.34
2022-10-19T12:22:03.085Z,13.34
2022-10-19T12:23:04.834Z,13.34
2022-10-19T12:24:06.537Z,13.35
2022-10-19T12:25:08.285Z,13.35
2022-10-19T12:26:10.063Z,13.35
2022-10-19T12:27:11.760Z,13.35
2022-10-19T12:28:13.496Z,13.36
2022-10-19T12:29:15.223Z,13.36
2022-10-19T12:30:16.976Z,13.36
2022-10-19T12:31:18.686Z,13.34
2022-10-19T12:32:20.430Z,13.36
2022-10-19T12:33:22.201Z,13.34
2022-10-19T12:34:23.922Z,13.34
2022-10-19T12:35:25.642Z,13.35
2022-10-19T12:36:27.378Z,13.35
2022-10-19T12:37:29.125Z,13.36
2022-10-19T12:38:30.838Z,13.37
2022-10-19T12:39:32.567Z,13.36
2022-10-19T12:40:34.307Z,13.37
2022-10-19T12:41:36.046Z,13.37
2022-10-19T12:42:37.768Z,13.38
2022-10-19T12:43:39.510Z,13.4
2022-10-19T12:44:41.247Z,13.4
2022-10-19T12:45:47.562Z,13.42
2022-10-19T12:46:52.973Z,13.44
2022-10-19T12:47:51.582Z,13.45
2022-10-19T12:48:53.331Z,13.46
2022-10-19T12:49:55.049Z,13.47
2022-10-19T12:50:56.798Z,13.47
2022-10-19T12:51:58.530Z,13.48
2022-10-19T12:53:00.263Z,13.5
2022-10-19T12:54:02.026Z,13.51
2022-10-19T12:55:03.732Z,13.52
2022-10-19T12:56:05.481Z,13.52
2022-10-19T12:57:07.195Z,13.53
2022-10-19T12:58:08.943Z,13.54
2022-10-19T12:59:10.680Z,13.54
2022-10-19T13:00:12.393Z,13.56
2022-10-19T13:01:14.182Z,13.57
2022-10-19T13:02:15.905Z,13.57
2022-10-19T13:03:17.652Z,13.58
2022-10-19T13:04:19.348Z,13.58
2022-10-19T13:05:21.075Z,13.57
2022-10-19T13:06:22.835Z,13.59
2022-10-19T13:07:24.540Z,13.59
2022-10-19T13:08:26.327Z,13.61
2022-10-19T13:09:28.008Z,13.6
2022-10-19T13:10:29.753Z,13.62
2022-10-19T13:11:31.507Z,13.63
2022-10-19T13:12:33.278Z,13.64
2022-10-19T13:13:34.948Z,13.65
2022-10-19T13:14:36.679Z,13.66
2022-10-19T13:15:39.840Z,13.67
2022-10-19T13:16:40.180Z,13.67
2022-10-19T13:17:41.888Z,13.68
2022-10-19T13:18:43.638Z,13.69
2022-10-19T13:19:45.365Z,13.71
2022-10-19T13:20:47.104Z,13.71
2022-10-19T13:21:48.869Z,13.73
2022-10-19T13:22:50.552Z,13.74
2022-10-19T13:23:52.295Z,13.76
2022-10-19T13:24:54.025Z,13.77
2022-10-19T13:25:55.764Z,13.78
2022-10-19T13:26:57.538Z,13.79
2022-10-19T13:28:03.699Z,13.8
2022-10-19T13:29:04.001Z,13.81